Time;durP1;ratioP1;P1;durP2;ratioP2;P2;SDS_P1;SDS_P2;PMS_P1;PMS_P2;Temp;Humidity;BMP_temperature;BMP_pressure;BME280_temperature;BME280_humidity;BME280_pressure;Samples;Min_cycle;Max_cycle;Signal;HPM_P1;HPM_P2
2024/01/13 00:01:27;;;;;;;42.17;20.10;;;13.20;2201.60;;;;;;5029904;28;20034;-63
2024/01/13 00:03:52;;;;;;;44.90;20.90;;;13.20;2201.60;;;;;;5031289;28;20080;-63
2024/01/13 00:06:18;;;;;;;44.83;19.98;;;13.20;2201.60;;;;;;5030881;28;20100;-66
2024/01/13 00:08:44;;;;;;;41.28;21.00;;;13.20;2201.60;;;;;;5029664;28;20062;-68
2024/01/13 00:11:09;;;;;;;38.88;18.63;;;13.20;2201.60;;;;;;5015696;28;20118;-64
2024/01/13 00:13:35;;;;;;;39.63;17.52;;;13.30;2201.60;;;;;;5032245;28;20135;-65
2024/01/13 00:16:01;;;;;;;41.25;18.95;;;13.30;2201.60;;;;;;5041625;28;20033;-69
2024/01/13 00:18:26;;;;;;;38.58;18.25;;;13.30;2201.60;;;;;;5042624;28;20044;-71
2024/01/13 00:20:53;;;;;;;37.30;17.25;;;13.30;2201.60;;;;;;5035595;28;20476;-64
2024/01/13 00:23:20;;;;;;;43.35;19.95;;;13.30;2201.60;;;;;;5038283;28;20065;-64
2024/01/13 00:25:46;;;;;;;40.00;19.40;;;13.40;2201.60;;;;;;5039005;28;20057;-66
2024/01/13 00:28:15;;;;;;;42.50;19.80;;;13.40;2201.60;;;;;;5042238;28;20049;-64
2024/01/13 00:30:41;;;;;;;40.75;19.23;;;13.50;2201.60;;;;;;5035871;28;20039;-65
2024/01/13 00:33:06;;;;;;;42.55;20.17;;;13.50;2201.60;;;;;;5047530;28;20029;-64
2024/01/13 00:35:32;;;;;;;48.70;22.55;;;13.50;2201.60;;;;;;5039692;28;20560;-66
2024/01/13 00:37:58;;;;;;;46.35;21.98;;;13.60;2201.60;;;;;;5056393;28;20029;-66
2024/01/13 00:40:24;;;;;;;45.08;20.58;;;13.60;2201.60;;;;;;5056440;28;20037;-68
2024/01/13 00:42:49;;;;;;;42.53;20.08;;;13.70;2201.60;;;;;;5040119;28;20037;-65
2024/01/13 00:45:15;;;;;;;42.58;20.83;;;13.70;2201.60;;;;;;5038877;28;20053;-64
2024/01/13 00:47:43;;;;;;;41.63;19.90;;;13.70;2201.60;;;;;;5041382;28;20025;-64
2024/01/13 00:50:09;;;;;;;40.50;19.88;;;13.70;2201.60;;;;;;5038644;28;20404;-70
2024/01/13 00:52:35;;;;;;;39.00;18.92;;;13.70;2201.60;;;;;;5016881;28;20044;-65
2024/01/13 00:55:01;;;;;;;40.17;18.77;;;13.70;2201.60;;;;;;5035775;28;20030;-66
2024/01/13 00:57:27;;;;;;;36.40;18.83;;;38.40;2201.60;;;;;;5036234;28;20435;-62
2024/01/13 00:59:52;;;;;;;41.90;18.95;;;38.40;2201.60;;;;;;5035890;28;20432;-62
2024/01/13 01:02:18;;;;;;;37.38;18.58;;;38.50;2201.60;;;;;;5018614;28;20033;-67
2024/01/13 01:04:44;;;;;;;38.38;18.20;;;38.40;2201.60;;;;;;5032916;28;20030;-66
2024/01/13 01:07:09;;;;;;;40.50;20.35;;;38.40;2201.60;;;;;;5036105;28;20032;-67
2024/01/13 01:09:35;;;;;;;46.63;20.52;;;38.40;2201.60;;;;;;5036912;28;20108;-67
2024/01/13 01:12:01;;;;;;;40.63;19.85;;;38.50;2201.60;;;;;;5028668;28;20045;-65
2024/01/13 01:14:26;;;;;;;40.78;18.73;;;38.40;2201.60;;;;;;5034753;28;20033;-65
2024/01/13 01:16:52;;;;;;;43.75;20.17;;;38.40;2201.60;;;;;;5040536;28;20013;-65
2024/01/13 01:19:19;;;;;;;41.72;19.98;;;38.50;2201.60;;;;;;5036055;28;20026;-63
2024/01/13 01:21:44;;;;;;;43.17;19.88;;;38.50;2201.60;;;;;;5039390;28;20391;-64
2024/01/13 01:24:10;;;;;;;42.90;20.27;;;38.50;2201.60;;;;;;5056249;28;20040;-67
2024/01/13 01:26:36;;;;;;;43.50;18.30;;;38.40;2201.60;;;;;;5056658;28;20036;-63
2024/01/13 01:29:01;;;;;;;42.28;19.73;;;38.40;2201.60;;;;;;5045092;28;20399;-63
2024/01/13 01:31:27;;;;;;;30.60;14.82;;;38.40;2201.60;;;;;;5036896;28;20041;-67
2024/01/13 01:33:53;;;;;;;37.33;17.05;;;38.40;2201.60;;;;;;5038359;28;20037;-67
2024/01/13 01:36:19;;;;;;;38.38;18.00;;;38.40;2201.60;;;;;;5023282;28;20072;-63
2024/01/13 01:38:44;;;;;;;32.75;14.27;;;38.40;2201.60;;;;;;5033924;28;20495;-62
2024/01/13 01:41:13;;;;;;;41.22;19.23;;;38.40;2201.60;;;;;;5038032;28;20029;-67
2024/01/13 01:43:39;;;;;;;40.00;17.77;;;38.40;2201.60;;;;;;5034745;28;20502;-66
2024/01/13 01:46:06;;;;;;;32.78;13.90;;;38.40;2201.60;;;;;;5036664;28;20207;-64
2024/01/13 01:48:42;;;;;;;37.70;17.83;;;38.40;2201.60;;;;;;5031752;28;20029;-62
2024/01/13 01:51:09;;;;;;;38.42;17.52;;;13.70;2201.60;;;;;;5035947;28;20029;-68
2024/01/13 01:53:36;;;;;;;39.22;18.20;;;38.40;2201.60;;;;;;5032767;28;20033;-63
2024/01/13 01:56:06;;;;;;;38.03;17.65;;;38.40;2201.60;;;;;;5035726;28;20030;-62
2024/01/13 01:58:33;;;;;;;38.88;17.95;;;38.40;2201.60;;;;;;5030964;28;20033;-65
2024/01/13 02:01:01;;;;;;;36.30;15.55;;;38.40;2201.60;;;;;;5031852;28;20149;-64
2024/01/13 02:03:26;;;;;;;38.47;18.17;;;13.70;2201.60;;;;;;5034304;28;20830;-62
2024/01/13 02:05:53;;;;;;;33.95;16.38;;;13.70;2201.60;;;;;;5031009;28;20598;-63
2024/01/13 02:08:22;;;;;;;31.60;14.55;;;13.70;2201.60;;;;;;5028754;28;20026;-68
2024/01/13 02:10:49;;;;;;;37.00;18.27;;;13.70;2201.60;;;;;;5030786;28;20045;-67
2024/01/13 02:13:15;;;;;;;37.40;17.23;;;13.70;2201.60;;;;;;5031989;28;20495;-62
2024/01/13 02:15:41;;;;;;;38.75;17.45;;;13.70;2201.60;;;;;;5043445;28;20033;-62
2024/01/13 02:18:06;;;;;;;41.70;18.67;;;13.70;2201.60;;;;;;5033990;28;20041;-63
2024/01/13 02:20:32;;;;;;;38.53;17.50;;;13.70;2201.60;;;;;;5040538;28;20056;-62
2024/01/13 02:22:57;;;;;;;37.88;17.63;;;13.70;2201.60;;;;;;5036241;28;20105;-62
2024/01/13 02:25:23;;;;;;;40.78;18.42;;;13.60;2201.60;;;;;;5034697;28;20504;-63
2024/01/13 02:27:49;;;;;;;39.03;17.63;;;13.60;2201.60;;;;;;5031635;28;20036;-63
2024/01/13 02:30:14;;;;;;;41.70;19.08;;;13.60;2201.60;;;;;;5030919;28;20086;-61
2024/01/13 02:32:40;;;;;;;42.28;20.00;;;13.60;2201.60;;;;;;5031925;28;20089;-62
2024/01/13 02:35:06;;;;;;;40.42;17.65;;;13.60;2201.60;;;;;;5033984;28;20034;-62
2024/01/13 02:37:32;;;;;;;40.40;18.33;;;13.60;2201.60;;;;;;5032094;28;20029;-62
2024/01/13 02:39:58;;;;;;;40.17;17.33;;;13.60;2201.60;;;;;;5045621;28;20025;-62
2024/01/13 02:42:23;;;;;;;41.53;18.10;;;13.60;2201.60;;;;;;5039614;28;20037;-63
2024/01/13 02:44:49;;;;;;;38.10;17.27;;;13.60;2201.60;;;;;;5015980;28;20474;-67
2024/01/13 02:47:17;;;;;;;40.42;18.15;;;13.60;2201.60;;;;;;5029245;28;20025;-66
2024/01/13 02:49:43;;;;;;;37.83;17.67;;;13.60;2201.60;;;;;;5035468;28;20043;-69
2024/01/13 02:52:09;;;;;;;39.80;17.52;;;13.60;2201.60;;;;;;5035692;28;20535;-64
2024/01/13 02:54:34;;;;;;;41.92;19.50;;;13.50;2201.60;;;;;;5032823;28;20029;-67
2024/01/13 02:57:00;;;;;;;40.20;17.85;;;13.50;2201.60;;;;;;5030930;28;20384;-61
2024/01/13 02:59:26;;;;;;;40.50;18.92;;;13.50;2201.60;;;;;;5033244;28;20037;-64
2024/01/13 03:01:51;;;;;;;40.90;19.05;;;13.50;2201.60;;;;;;5028369;28;20052;-64
2024/01/13 03:04:17;;;;;;;42.80;18.92;;;13.50;2201.60;;;;;;5013019;28;20117;-67
2024/01/13 03:06:43;;;;;;;42.92;19.42;;;13.50;2201.60;;;;;;5030160;28;20068;-62
2024/01/13 03:09:08;;;;;;;41.50;19.27;;;13.40;2201.60;;;;;;5029800;28;20519;-64
2024/01/13 03:11:34;;;;;;;41.10;19.95;;;13.40;2201.60;;;;;;5031380;28;20051;-62
2024/01/13 03:14:00;;;;;;;42.13;19.67;;;13.40;2201.60;;;;;;5032952;28;20084;-66
2024/01/13 03:16:26;;;;;;;40.75;18.77;;;13.40;2201.60;;;;;;5029714;28;20491;-68
2024/01/13 03:18:52;;;;;;;39.00;18.00;;;13.50;2201.60;;;;;;5032768;28;20361;-67
2024/01/13 03:21:18;;;;;;;43.22;19.38;;;13.40;2201.60;;;;;;5028982;28;20032;-63
2024/01/13 03:23:48;;;;;;;41.20;17.83;;;13.40;2201.60;;;;;;5014664;28;20136;-61
2024/01/13 03:26:14;;;;;;;42.17;17.75;;;13.40;2201.60;;;;;;5033725;28;20081;-64
2024/01/13 03:28:42;;;;;;;43.85;18.83;;;13.40;2201.60;;;;;;5029316;28;20080;-65
2024/01/13 03:31:09;;;;;;;39.30;17.02;;;13.30;2201.60;;;;;;5029807;28;20420;-62
2024/01/13 03:33:35;;;;;;;46.00;19.85;;;13.40;2201.60;;;;;;5030726;28;20030;-62
2024/01/13 03:36:01;;;;;;;42.40;19.55;;;13.40;2201.60;;;;;;5034674;28;20026;-62
2024/01/13 03:38:27;;;;;;;38.72;18.08;;;13.30;2201.60;;;;;;5031150;28;20017;-67
2024/01/13 03:40:52;;;;;;;41.67;17.83;;;13.30;2201.60;;;;;;5029287;28;20097;-60
2024/01/13 03:43:18;;;;;;;39.17;16.95;;;13.30;2201.60;;;;;;5027603;28;20041;-61
2024/01/13 03:45:44;;;;;;;38.58;17.77;;;13.00;2201.60;;;;;;5030017;28;20026;-61
2024/01/13 03:48:10;;;;;;;39.08;18.58;;;13.30;2201.60;;;;;;5030369;28;20095;-69
2024/01/13 03:50:35;;;;;;;36.75;15.90;;;13.30;2201.60;;;;;;5029684;28;20558;-65
2024/01/13 03:53:01;;;;;;;38.20;17.45;;;13.30;2201.60;;;;;;5029283;28;20137;-61
2024/01/13 03:55:27;;;;;;;39.05;18.90;;;13.30;2201.60;;;;;;5027474;28;20408;-66
2024/01/13 03:57:53;;;;;;;40.05;18.05;;;13.30;2201.60;;;;;;5022748;28;20029;-67
2024/01/13 04:00:19;;;;;;;40.00;18.15;;;13.30;2201.60;;;;;;5027900;28;20535;-61
2024/01/13 04:02:45;;;;;;;40.28;17.05;;;13.30;2201.60;;;;;;5026293;28;20050;-64
2024/01/13 04:05:11;;;;;;;46.33;19.73;;;13.30;2201.60;;;;;;5028960;28;20024;-64
2024/01/13 04:07:36;;;;;;;39.50;17.83;;;13.30;2201.60;;;;;;5026795;28;20067;-67
2024/01/13 04:10:02;;;;;;;42.55;20.00;;;13.30;2201.60;;;;;;5023694;28;20029;-62
2024/01/13 04:12:28;;;;;;;44.47;19.75;;;13.20;2201.60;;;;;;5027669;28;20401;-63
2024/01/13 04:14:54;;;;;;;40.58;17.95;;;13.20;2201.60;;;;;;5025880;28;20096;-62
2024/01/13 04:17:19;;;;;;;38.72;18.05;;;13.30;2201.60;;;;;;5025816;28;20045;-66
2024/01/13 04:19:45;;;;;;;40.45;18.08;;;13.30;2201.60;;;;;;5027887;28;20431;-63
2024/01/13 04:22:11;;;;;;;39.80;17.88;;;13.30;2201.60;;;;;;5027756;28;20052;-61
2024/01/13 04:24:36;;;;;;;42.88;17.67;;;13.30;2201.60;;;;;;5029331;28;20037;-67
2024/01/13 04:27:02;;;;;;;44.95;19.05;;;13.30;2201.60;;;;;;5032705;28;20127;-63
2024/01/13 04:29:28;;;;;;;40.58;17.45;;;13.30;2201.60;;;;;;5030378;28;20034;-65
2024/01/13 04:31:53;;;;;;;39.58;18.00;;;13.30;2201.60;;;;;;5029644;28;20036;-67
2024/01/13 04:34:19;;;;;;;40.67;17.38;;;13.30;2201.60;;;;;;5030990;28;20069;-62
2024/01/13 04:36:45;;;;;;;38.90;17.90;;;13.30;2201.60;;;;;;5034478;28;20080;-62
2024/01/13 04:39:11;;;;;;;41.17;18.73;;;13.30;2201.60;;;;;;5032492;28;20071;-62
2024/01/13 04:41:41;;;;;;;38.53;16.20;;;13.30;2201.60;;;;;;5027647;28;20502;-64
2024/01/13 04:44:08;;;;;;;39.05;18.50;;;13.30;2201.60;;;;;;5032113;28;20385;-68
2024/01/13 04:46:35;;;;;;;40.40;18.05;;;13.30;2201.60;;;;;;5030408;28;20030;-62
2024/01/13 04:49:00;;;;;;;42.88;19.27;;;13.40;2201.60;;;;;;5026218;28;20404;-62
2024/01/13 04:51:26;;;;;;;37.63;16.35;;;13.20;2201.60;;;;;;5029523;28;20030;-63
2024/01/13 04:53:52;;;;;;;41.50;18.75;;;13.20;2201.60;;;;;;5020242;28;20065;-61
2024/01/13 04:56:17;;;;;;;37.35;14.65;;;13.30;2201.60;;;;;;5009664;28;20060;-60
2024/01/13 04:58:43;;;;;;;38.60;17.20;;;13.30;2201.60;;;;;;5039196;28;20163;-64
2024/01/13 05:01:09;;;;;;;42.63;18.80;;;13.20;2201.60;;;;;;5031405;28;20079;-61
2024/01/13 05:03:38;;;;;;;40.42;17.65;;;13.20;2201.60;;;;;;5024028;28;20440;-68
2024/01/13 05:06:03;;;;;;;38.92;16.42;;;13.20;2201.60;;;;;;5029659;28;20499;-65
2024/01/13 05:08:29;;;;;;;41.35;18.67;;;13.20;2201.60;;;;;;5043160;28;20037;-64
2024/01/13 05:10:55;;;;;;;43.72;19.17;;;13.20;2201.60;;;;;;5049021;28;20029;-69
2024/01/13 05:13:20;;;;;;;41.35;17.60;;;13.20;2201.60;;;;;;5051203;28;20037;-63
2024/01/13 05:15:46;;;;;;;43.20;18.10;;;13.20;2201.60;;;;;;5052989;28;20381;-62
2024/01/13 05:18:12;;;;;;;39.40;17.50;;;13.20;2201.60;;;;;;5053135;28;20171;-67
2024/01/13 05:20:37;;;;;;;43.67;19.88;;;13.20;2201.60;;;;;;5052534;28;20361;-64
2024/01/13 05:23:04;;;;;;;64.97;26.92;;;13.20;2201.60;;;;;;5039726;28;20338;-67
2024/01/13 05:25:30;;;;;;;77.13;32.83;;;13.10;2201.60;;;;;;5031217;28;20054;-64
2024/01/13 05:27:55;;;;;;;52.35;22.67;;;13.20;2201.60;;;;;;5032958;28;20386;-61
2024/01/13 05:30:21;;;;;;;56.97;24.52;;;13.10;2201.60;;;;;;5032649;28;20113;-61
2024/01/13 05:32:50;;;;;;;61.90;26.65;;;13.10;2201.60;;;;;;5036846;28;20025;-62
2024/01/13 05:35:16;;;;;;;51.17;23.20;;;13.10;2201.60;;;;;;5031956;28;20413;-61
2024/01/13 05:37:41;;;;;;;47.47;20.85;;;13.10;2201.60;;;;;;5033157;28;20035;-62
2024/01/13 05:40:08;;;;;;;64.70;32.75;;;13.10;2201.60;;;;;;5033657;28;20532;-63
2024/01/13 05:42:34;;;;;;;44.55;20.20;;;13.10;2201.60;;;;;;5033047;28;20764;-65
2024/01/13 05:44:59;;;;;;;272.95;96.82;;;13.10;2201.60;;;;;;5033206;28;20057;-65
2024/01/13 05:47:25;;;;;;;63.95;27.35;;;13.10;2201.60;;;;;;5043057;28;20040;-61
2024/01/13 05:49:52;;;;;;;52.97;23.00;;;13.10;2201.60;;;;;;5050340;28;20044;-65
2024/01/13 05:52:18;;;;;;;495.63;153.88;;;13.10;2201.60;;;;;;5038294;28;20120;-65
2024/01/13 05:54:43;;;;;;;97.07;35.08;;;13.10;2201.60;;;;;;5034204;28;20097;-61
2024/01/13 05:57:09;;;;;;;64.75;26.45;;;13.10;2201.60;;;;;;5034130;28;20029;-64
2024/01/13 05:59:35;;;;;;;48.15;20.15;;;13.10;2201.60;;;;;;5034449;28;20034;-65
2024/01/13 06:02:00;;;;;;;45.20;20.25;;;13.20;2201.60;;;;;;5038726;28;20033;-63
2024/01/13 06:04:26;;;;;;;40.90;19.30;;;13.20;2201.60;;;;;;5033125;28;20156;-63
2024/01/13 06:06:52;;;;;;;46.05;19.25;;;13.20;2201.60;;;;;;5037040;28;20072;-63
2024/01/13 06:09:20;;;;;;;42.50;18.42;;;13.20;2201.60;;;;;;5032402;28;20476;-66
2024/01/13 06:11:46;;;;;;;45.45;18.98;;;13.20;2201.60;;;;;;5035053;28;20025;-64
2024/01/13 06:14:11;;;;;;;115.10;40.75;;;13.20;2201.60;;;;;;5038858;28;20519;-62
2024/01/13 06:16:38;;;;;;;46.22;20.88;;;13.20;2201.60;;;;;;5040450;28;20029;-64
2024/01/13 06:19:05;;;;;;;45.33;18.92;;;13.30;2201.60;;;;;;5034892;28;20036;-62
2024/01/13 06:21:31;;;;;;;40.00;19.77;;;13.30;2201.60;;;;;;5031883;28;20026;-60
2024/01/13 06:23:58;;;;;;;41.17;19.75;;;13.30;2201.60;;;;;;5034237;28;20043;-64
2024/01/13 06:26:26;;;;;;;41.78;17.40;;;13.30;2201.60;;;;;;5031499;28;20056;-63
2024/01/13 06:28:52;;;;;;;39.45;18.42;;;13.30;2201.60;;;;;;5032370;28;20083;-62
2024/01/13 06:31:18;;;;;;;42.63;19.70;;;13.30;2201.60;;;;;;5033805;28;20220;-65
2024/01/13 06:33:43;;;;;;;42.47;19.58;;;13.30;2201.60;;;;;;5030236;28;20148;-62
2024/01/13 06:36:09;;;;;;;42.85;18.83;;;13.30;2201.60;;;;;;5031767;28;20030;-63
2024/01/13 06:38:35;;;;;;;46.35;20.20;;;13.30;2201.60;;;;;;5031403;28;20037;-61
2024/01/13 06:41:01;;;;;;;44.17;20.63;;;13.30;2201.60;;;;;;5035055;28;20025;-62
2024/01/13 06:43:27;;;;;;;43.45;19.83;;;13.30;2201.60;;;;;;5033096;28;20099;-64
2024/01/13 06:45:52;;;;;;;41.85;19.30;;;13.30;2201.60;;;;;;5014052;28;20041;-62
2024/01/13 06:48:18;;;;;;;44.13;22.13;;;13.30;2201.60;;;;;;5039575;28;20044;-63
2024/01/13 06:50:44;;;;;;;60.03;29.58;;;13.30;2201.60;;;;;;5037297;28;20033;-62
2024/01/13 06:53:10;;;;;;;65.60;29.63;;;13.20;2201.60;;;;;;5035646;28;20032;-63
2024/01/13 06:55:36;;;;;;;69.95;31.05;;;13.20;2201.60;;;;;;5039333;28;20093;-62
2024/01/13 06:58:02;;;;;;;122.10;46.67;;;13.20;2201.60;;;;;;5050898;28;20049;-63
2024/01/13 07:00:28;;;;;;;55.72;23.75;;;13.20;2201.60;;;;;;5031652;28;20033;-64
2024/01/13 07:02:53;;;;;;;86.15;31.30;;;13.20;2201.60;;;;;;5035180;28;20461;-62
2024/01/13 07:05:20;;;;;;;188.98;53.70;;;13.20;2201.60;;;;;;5036805;28;20045;-61
2024/01/13 07:07:45;;;;;;;98.78;38.67;;;13.20;2201.60;;;;;;5041481;28;20036;-64
2024/01/13 07:10:11;;;;;;;171.57;54.92;;;13.10;2201.60;;;;;;5040617;28;20029;-62
2024/01/13 07:12:37;;;;;;;117.78;40.83;;;13.00;2201.60;;;;;;5038437;28;20048;-63
2024/01/13 07:15:03;;;;;;;100.97;33.05;;;13.10;2201.60;;;;;;5032196;28;20033;-62
2024/01/13 07:17:29;;;;;;;120.70;35.13;;;13.10;2201.60;;;;;;5049978;28;20137;-61
2024/01/13 07:19:55;;;;;;;210.25;57.03;;;13.10;2201.60;;;;;;5051569;28;20033;-63
2024/01/13 07:22:20;;;;;;;62.22;27.77;;;13.00;2201.60;;;;;;5048256;28;20025;-64
2024/01/13 07:24:50;;;;;;;67.60;30.55;;;13.00;2201.60;;;;;;5039293;28;20065;-64
2024/01/13 07:27:19;;;;;;;151.82;45.97;;;12.90;2201.60;;;;;;5031485;28;20499;-64
2024/01/13 07:29:44;;;;;;;154.70;45.40;;;0.00;2201.60;;;;;;5045590;28;20029;-61
2024/01/13 07:32:13;;;;;;;122.05;38.38;;;0.20;2201.60;;;;;;5043268;28;20045;-64
2024/01/13 07:34:41;;;;;;;190.38;48.70;;;0.30;2201.60;;;;;;5033789;28;20516;-62
2024/01/13 07:37:07;;;;;;;305.98;71.55;;;0.30;2201.60;;;;;;5045455;28;20084;-63
2024/01/13 07:39:32;;;;;;;69.97;26.60;;;0.30;2201.60;;;;;;5037036;28;20032;-62
2024/01/13 07:41:58;;;;;;;235.27;55.17;;;0.60;2201.60;;;;;;5049637;28;20588;-62
2024/01/13 07:44:24;;;;;;;83.35;30.50;;;52.10;2227.20;;;;;;5034427;28;20451;-66
2024/01/13 07:46:49;;;;;;;123.13;36.42;;;102.60;2227.20;;;;;;5014716;28;20033;-63
2024/01/13 07:49:15;;;;;;;64.70;26.33;;;128.70;2252.80;;;;;;5030546;28;20030;-61
2024/01/13 07:51:41;;;;;;;90.35;32.30;;;154.00;2252.80;;;;;;5030001;28;20471;-64
2024/01/13 07:54:07;;;;;;;50.28;24.30;;;179.50;2252.80;;;;;;5050204;28;20029;-66
2024/01/13 07:56:33;;;;;;;105.97;32.45;;;179.90;2252.80;;;;;;5048283;28;20047;-66
2024/01/13 07:58:59;;;;;;;54.58;23.90;;;205.10;2201.60;;;;;;5034371;28;20021;-67
2024/01/13 08:01:26;;;;;;;136.27;39.45;;;205.20;2124.80;;;;;;5028693;28;20448;-69
2024/01/13 08:03:52;;;;;;;109.55;32.67;;;205.70;2124.80;;;;;;5036718;28;20099;-64
2024/01/13 08:06:17;;;;;;;154.60;41.30;;;230.70;2252.80;;;;;;5036483;28;20029;-71
2024/01/13 08:08:43;;;;;;;160.15;42.40;;;231.00;1971.20;;;;;;5039087;28;20033;-65
2024/01/13 08:11:09;;;;;;;200.63;52.65;;;231.20;1920.00;;;;;;5044751;28;20080;-67
2024/01/13 08:13:34;;;;;;;114.32;38.70;;;281.80;1868.80;;;;;;5049738;28;20083;-73
2024/01/13 08:16:00;;;;;;;139.38;43.10;;;256.90;1792.00;;;;;;5023975;28;20031;-72
2024/01/13 08:18:26;;;;;;;111.25;37.40;;;256.80;1792.00;;;;;;5028598;28;20117;-71
2024/01/13 08:20:51;;;;;;;266.95;66.65;;;282.00;1792.00;;;;;;5030860;28;20134;-74
2024/01/13 08:23:18;;;;;;;57.42;23.00;;;256.90;1740.80;;;;;;5029406;28;20063;-70
2024/01/13 08:25:44;;;;;;;130.30;38.42;;;281.60;1766.40;;;;;;5037752;28;20049;-75
2024/01/13 08:28:10;;;;;;;42.10;20.88;;;282.50;2252.80;;;;;;5040534;28;20083;-70
2024/01/13 08:30:37;;;;;;;139.10;41.08;;;281.80;1740.80;;;;;;5031102;28;20039;-73
2024/01/13 08:33:04;;;;;;;147.77;43.05;;;256.90;1740.80;;;;;;5032026;28;20128;-68
2024/01/13 08:35:30;;;;;;;99.38;35.13;;;281.60;1766.40;;;;;;5030737;28;20034;-71
2024/01/13 08:37:56;;;;;;;223.95;60.85;;;282.50;1689.60;;;;;;5032282;28;20048;-73
2024/01/13 08:40:22;;;;;;;147.25;43.80;;;307.90;1664.00;;;;;;5029704;28;20072;-75
2024/01/13 08:42:49;;;;;;;170.65;51.85;;;307.50;1689.60;;;;;;5035275;28;20118;-74
2024/01/13 08:45:15;;;;;;;152.32;42.53;;;308.10;1638.40;;;;;;5033641;28;20029;-73
2024/01/13 08:47:41;;;;;;;71.80;29.88;;;307.80;1638.40;;;;;;5039162;28;20034;-71
2024/01/13 08:50:07;;;;;;;82.50;33.47;;;307.70;1587.20;;;;;;5045004;28;20033;-73
2024/01/13 08:52:36;;;;;;;65.97;27.95;;;307.70;1587.20;;;;;;5051836;28;20078;-68
2024/01/13 08:55:01;;;;;;;48.10;25.40;;;307.60;1612.80;;;;;;5043645;28;20024;-71
2024/01/13 08:57:27;;;;;;;36.25;18.35;;;282.10;1638.40;;;;;;5034183;28;20503;-74
2024/01/13 08:59:53;;;;;;;92.28;35.25;;;256.40;1638.40;;;;;;5033664;28;20033;-70
2024/01/13 09:02:21;;;;;;;32.95;17.17;;;256.00;1740.80;;;;;;5036695;28;20033;-74
2024/01/13 09:04:47;;;;;;;39.15;19.27;;;230.70;1766.40;;;;;;5040661;28;20043;-75
2024/01/13 09:07:13;;;;;;;55.53;24.35;;;230.60;1792.00;;;;;;5052200;28;20033;-74
2024/01/13 09:09:38;;;;;;;35.70;18.60;;;230.60;1817.60;;;;;;5037316;28;20057;-72
2024/01/13 09:12:04;;;;;;;70.57;26.80;;;230.80;1792.00;;;;;;5045438;28;20461;-75
2024/01/13 09:14:30;;;;;;;37.67;18.65;;;230.70;1792.00;;;;;;5033266;28;20447;-74
2024/01/13 09:16:55;;;;;;;40.90;19.05;;;230.60;1792.00;;;;;;5032310;28;20037;-67
2024/01/13 09:19:21;;;;;;;41.65;22.50;;;230.90;1766.40;;;;;;5045919;28;20391;-74
2024/01/13 09:21:47;;;;;;;43.80;22.35;;;230.80;1792.00;;;;;;5046134;28;20026;-73
2024/01/13 09:24:14;;;;;;;55.03;23.90;;;230.90;1766.40;;;;;;5037433;28;20049;-70
2024/01/13 09:26:41;;;;;;;40.65;20.27;;;230.60;1792.00;;;;;;5040237;28;20567;-64
2024/01/13 09:29:07;;;;;;;35.30;18.52;;;230.90;1792.00;;;;;;5031139;28;20040;-64
2024/01/13 09:31:32;;;;;;;50.95;24.40;;;230.80;1766.40;;;;;;5050587;28;20036;-67
2024/01/13 09:33:58;;;;;;;49.88;26.00;;;230.80;1766.40;;;;;;5034582;28;20104;-72
2024/01/13 09:36:24;;;;;;;27.27;14.00;;;231.10;1766.40;;;;;;5039616;28;20031;-70
2024/01/13 09:38:50;;;;;;;42.75;22.58;;;230.50;1766.40;;;;;;5035108;28;20049;-66
2024/01/13 09:41:17;;;;;;;40.47;19.60;;;230.60;1817.60;;;;;;5031645;28;20080;-66
2024/01/13 09:44:15;;;;;;;31.92;17.13;;;230.60;1817.60;;;;;;5032432;28;20511;-65
2024/01/13 09:46:41;;;;;;;54.72;26.77;;;205.60;1817.60;;;;;;5031010;28;20045;-65
2024/01/13 09:49:12;;;;;;;38.40;20.30;;;204.90;1894.40;;;;;;5032411;28;20013;-69
2024/01/13 09:51:39;;;;;;;50.40;25.75;;;204.90;1894.40;;;;;;5029913;28;20034;-75
2024/01/13 09:54:15;;;;;;;40.83;20.10;;;204.80;1920.00;;;;;;5009731;28;20030;-68
2024/01/13 09:56:45;;;;;;;57.58;27.55;;;205.20;1920.00;;;;;;5030345;28;20444;-71
2024/01/13 09:59:12;;;;;;;39.90;21.88;;;205.50;1868.80;;;;;;5031472;28;20040;-65
2024/01/13 10:01:39;;;;;;;44.55;24.05;;;205.60;1868.80;;;;;;5030551;28;20435;-73
2024/01/13 10:04:06;;;;;;;45.42;23.23;;;205.70;1843.20;;;;;;5013235;28;20940;-76
2024/01/13 10:06:33;;;;;;;66.85;27.60;;;205.60;1843.20;;;;;;5042323;28;20513;-74
2024/01/13 10:08:59;;;;;;;23.10;13.57;;;230.60;1843.20;;;;;;5028458;28;20615;-65
2024/01/13 10:11:25;;;;;;;23.95;13.15;;;230.50;1817.60;;;;;;5032759;28;20515;-66
2024/01/13 10:14:01;;;;;;;36.65;17.52;;;230.40;1817.60;;;;;;5040271;28;20038;-68
2024/01/13 10:16:32;;;;;;;32.65;17.00;;;230.70;1792.00;;;;;;5032499;28;20108;-73
2024/01/13 10:19:02;;;;;;;25.63;13.60;;;230.50;1792.00;;;;;;5035002;28;20108;-65
2024/01/13 10:21:28;;;;;;;25.30;13.23;;;205.60;1817.60;;;;;;5034404;28;20502;-74
2024/01/13 10:23:56;;;;;;;47.80;22.70;;;230.50;1817.60;;;;;;5048600;28;20040;-65
2024/01/13 10:26:25;;;;;;;28.70;15.23;;;205.50;1817.60;;;;;;5046193;28;20104;-68
2024/01/13 10:28:51;;;;;;;27.95;15.02;;;205.40;1843.20;;;;;;5049013;28;20035;-65
2024/01/13 10:31:18;;;;;;;22.67;12.88;;;205.30;1843.20;;;;;;5051519;28;20032;-70
2024/01/13 10:33:48;;;;;;;38.20;19.48;;;205.30;1868.80;;;;;;5041272;28;20036;-66
2024/01/13 10:36:30;;;;;;;55.40;23.33;;;205.60;1843.20;;;;;;5038777;28;20547;-72
2024/01/13 10:38:58;;;;;;;29.02;15.35;;;205.60;1817.60;;;;;;5033971;28;20028;-71
2024/01/13 10:41:34;;;;;;;37.50;17.38;;;230.50;1792.00;;;;;;5035265;28;20025;-74
2024/01/13 10:44:03;;;;;;;37.08;19.65;;;230.70;1792.00;;;;;;5040990;28;20036;-65
2024/01/13 10:46:33;;;;;;;29.92;14.80;;;205.60;1817.60;;;;;;5054951;28;20432;-65
2024/01/13 10:49:08;;;;;;;22.65;11.85;;;205.40;1792.00;;;;;;5053935;28;20058;-66
2024/01/13 10:51:39;;;;;;;22.55;11.85;;;205.10;1843.20;;;;;;5052620;28;20056;-67
2024/01/13 10:54:09;;;;;;;28.80;14.05;;;204.90;1843.20;;;;;;5048516;28;20033;-65
2024/01/13 10:56:36;;;;;;;30.63;14.70;;;204.90;1868.80;;;;;;5023806;28;20590;-65
2024/01/13 10:59:02;;;;;;;39.65;19.67;;;204.90;1868.80;;;;;;5034590;28;20136;-64
2024/01/13 11:01:28;;;;;;;30.20;15.35;;;205.20;1843.20;;;;;;5034019;28;20037;-77
2024/01/13 11:03:56;;;;;;;30.80;15.93;;;205.40;1843.20;;;;;;5032521;28;20046;-65
2024/01/13 11:06:22;;;;;;;24.58;12.30;;;205.30;1843.20;;;;;;5033220;28;20578;-65
2024/01/13 11:08:48;;;;;;;27.85;12.95;;;205.40;1817.60;;;;;;5034851;28;20057;-65
2024/01/13 11:11:21;;;;;;;62.67;28.13;;;205.30;1817.60;;;;;;5033867;28;20075;-65
2024/01/13 11:14:02;;;;;;;63.83;26.95;;;205.20;1843.20;;;;;;5035458;28;20064;-68
2024/01/13 11:16:30;;;;;;;66.65;28.05;;;205.50;1817.60;;;;;;5053719;28;20033;-65
2024/01/13 11:18:58;;;;;;;23.17;12.50;;;230.50;1792.00;;;;;;5049502;28;20033;-64
2024/01/13 11:21:32;;;;;;;71.70;32.28;;;205.30;1817.60;;;;;;5037063;28;20026;-77
2024/01/13 11:24:07;;;;;;;45.63;21.35;;;204.90;1843.20;;;;;;5034377;28;20132;-68
2024/01/13 11:26:38;;;;;;;51.58;27.17;;;180.10;1894.40;;;;;;5033304;28;20038;-69
2024/01/13 11:29:24;;;;;;;26.58;16.02;;;180.00;1894.40;;;;;;5034976;28;20033;-64
2024/01/13 11:31:58;;;;;;;26.45;14.48;;;180.00;1920.00;;;;;;5033426;28;20504;-64
2024/01/13 11:34:24;;;;;;;24.88;13.40;;;179.90;1920.00;;;;;;5034455;28;20091;-70
2024/01/13 11:36:52;;;;;;;46.45;19.83;;;180.00;1920.00;;;;;;5036131;28;20439;-68
2024/01/13 11:39:19;;;;;;;72.97;30.50;;;205.10;1894.40;;;;;;5039852;28;20036;-70
2024/01/13 11:41:46;;;;;;;28.50;16.02;;;205.50;1843.20;;;;;;5042230;28;20032;-70
2024/01/13 11:44:38;;;;;;;70.00;30.45;;;205.20;1843.20;;;;;;5036351;28;20076;-64
2024/01/13 11:47:08;;;;;;;56.88;24.20;;;205.50;1868.80;;;;;;5042033;28;20029;-64
2024/01/13 11:49:37;;;;;;;33.30;16.65;;;205.70;1843.20;;;;;;5048328;28;20496;-70
2024/01/13 11:52:11;;;;;;;36.17;18.50;;;230.40;1817.60;;;;;;5033486;28;20037;-65
2024/01/13 11:54:38;;;;;;;36.78;18.55;;;205.30;1843.20;;;;;;5034567;28;20029;-64
2024/01/13 11:57:08;;;;;;;46.38;20.60;;;205.10;1843.20;;;;;;5027959;28;20103;-75
2024/01/13 11:59:34;;;;;;;72.47;29.50;;;205.10;1894.40;;;;;;5033280;28;20040;-65
2024/01/13 12:02:01;;;;;;;44.55;22.77;;;205.30;1868.80;;;;;;5044956;28;20029;-70